Terminal Aerodrome Forecast
Issued by NWS Austin/San Antonio, TX

Home | Current Version | Previous Version | Text Only | Print | Product List | Glossary On
Versions: 1 2 3 4 5 6 7 8 9 10 11 12 13 14 15 16 17 18 19 20 21 22 23
000
FTUS44 KEWX 031724
TAFAUS
TAF
KAUS 031724Z 0318/0424 13005KT P6SM SCT040 BKN050
     FM032200 14010KT P6SM SCT060
     FM040900 16005KT P6SM BKN015
     FM041600 16010KT P6SM BKN050=

USA.gov is the U.S. government's official web portal to all federal, state and local government web resources and services.